Time;durP1;ratioP1;P1;durP2;ratioP2;P2;SDS_P1;SDS_P2;PMS_P1;PMS_P2;Temp;Humidity;BMP_temperature;BMP_pressure;BME280_temperature;BME280_humidity;BME280_pressure;Samples;Min_cycle;Max_cycle;Signal;HPM_P1;HPM_P2
2023/11/22 00:00:51;;;;;;;6.18;4.70;;;;;6.80;99082.00;;;;4936225;29;20075;-65
2023/11/22 00:03:17;;;;;;;6.20;4.15;;;;;6.80;99081.00;;;;4935750;29;20056;-65
2023/11/22 00:05:44;;;;;;;4.40;3.80;;;;;6.80;99084.00;;;;4935209;29;20047;-64
2023/11/22 00:08:11;;;;;;;6.60;3.83;;;;;6.70;99086.00;;;;4934418;29;20063;-63
2023/11/22 00:10:39;;;;;;;5.00;3.30;;;;;6.60;99090.00;;;;4935774;29;20048;-63
2023/11/22 00:13:05;;;;;;;5.47;4.18;;;;;6.50;99087.00;;;;4934272;29;20111;-61
2023/11/22 00:15:32;;;;;;;6.18;4.05;;;;;6.40;99084.00;;;;4917885;29;20453;-64
2023/11/22 00:18:03;;;;;;;4.72;3.67;;;;;6.50;99089.00;;;;4935390;29;20054;-64
2023/11/22 00:20:30;;;;;;;4.65;3.58;;;;;6.40;99093.00;;;;4935536;29;20039;-65
2023/11/22 00:22:57;;;;;;;4.63;3.42;;;;;6.30;99089.00;;;;4935472;29;20044;-64
2023/11/22 00:25:23;;;;;;;3.88;3.40;;;;;6.30;99088.00;;;;4934507;29;20437;-65
2023/11/22 00:27:50;;;;;;;4.85;3.53;;;;;6.30;99088.00;;;;4934175;29;20075;-65
2023/11/22 00:30:16;;;;;;;4.20;3.50;;;;;6.30;99098.00;;;;4934000;29;20050;-65
2023/11/22 00:32:44;;;;;;;4.13;3.50;;;;;6.40;99098.00;;;;4918611;29;20076;-65
2023/11/22 00:35:10;;;;;;;4.82;3.60;;;;;6.20;99098.00;;;;4934494;29;20134;-64
2023/11/22 00:37:37;;;;;;;5.35;3.53;;;;;6.30;99098.00;;;;4933914;29;20048;-63
2023/11/22 00:40:10;;;;;;;4.10;3.63;;;;;6.20;99092.00;;;;4934971;29;20155;-64
2023/11/22 00:42:39;;;;;;;5.07;3.67;;;;;6.10;99094.00;;;;4935148;29;20053;-64
2023/11/22 00:45:07;;;;;;;4.85;3.35;;;;;6.20;99100.00;;;;4933421;29;20099;-64
2023/11/22 00:47:36;;;;;;;4.50;3.45;;;;;6.10;99098.00;;;;4934976;29;20050;-63
2023/11/22 00:50:06;;;;;;;5.95;3.22;;;;;6.00;99102.00;;;;4933875;29;20102;-64
2023/11/22 00:52:32;;;;;;;3.53;3.17;;;;;6.00;99110.00;;;;4933591;29;20047;-64
2023/11/22 00:54:59;;;;;;;5.28;3.05;;;;;6.00;99112.00;;;;4933362;29;20568;-64
2023/11/22 00:57:30;;;;;;;5.82;3.72;;;;;6.10;99115.00;;;;4935042;29;20425;-64
2023/11/22 00:59:57;;;;;;;3.83;3.20;;;;;6.00;99110.00;;;;4933674;29;20095;-64
2023/11/22 01:02:23;;;;;;;4.50;3.30;;;;;6.00;99106.00;;;;4933618;29;20055;-64
2023/11/22 01:04:50;;;;;;;5.03;3.00;;;;;6.00;99117.00;;;;4932956;29;20139;-63
2023/11/22 01:07:16;;;;;;;4.45;3.38;;;;;6.00;99115.00;;;;4934327;29;20054;-64
2023/11/22 01:09:43;;;;;;;5.15;3.60;;;;;5.90;99111.00;;;;4933681;29;20074;-64
2023/11/22 01:12:11;;;;;;;4.03;3.35;;;;;5.90;99120.00;;;;4934995;29;20095;-65
2023/11/22 01:14:39;;;;;;;5.82;3.67;;;;;5.80;99111.00;;;;4932871;29;20469;-64
2023/11/22 01:17:05;;;;;;;4.85;3.20;;;;;5.80;99116.00;;;;4918041;29;20055;-65
2023/11/22 01:19:32;;;;;;;7.13;3.83;;;;;5.70;99110.00;;;;4933402;29;20058;-62
2023/11/22 01:22:00;;;;;;;4.85;3.65;;;;;5.70;99117.00;;;;4933335;29;20147;-62
2023/11/22 01:24:28;;;;;;;4.28;3.25;;;;;5.70;99113.00;;;;4932743;29;20063;-63
2023/11/22 01:26:55;;;;;;;4.72;3.33;;;;;5.70;99118.00;;;;4933470;29;20489;-64
2023/11/22 01:29:21;;;;;;;5.05;3.42;;;;;5.70;99111.00;;;;4933340;29;20056;-62
2023/11/22 01:31:49;;;;;;;3.75;3.28;;;;;5.70;99114.00;;;;4934774;29;20056;-62
2023/11/22 01:34:16;;;;;;;4.93;3.70;;;;;5.60;99107.00;;;;4933777;29;20048;-61
2023/11/22 01:36:44;;;;;;;5.75;3.50;;;;;5.60;99113.00;;;;4933272;29;20044;-62
2023/11/22 01:39:13;;;;;;;4.43;3.42;;;;;5.60;99116.00;;;;4933304;29;20054;-62
2023/11/22 01:41:41;;;;;;;4.88;3.33;;;;;5.50;99126.00;;;;4933287;29;20110;-62
2023/11/22 01:44:08;;;;;;;5.38;3.17;;;;;5.50;99137.00;;;;4932572;29;20047;-62
2023/11/22 01:46:35;;;;;;;3.60;3.00;;;;;5.40;99135.00;;;;4933119;29;20069;-62
2023/11/22 01:49:02;;;;;;;3.92;3.13;;;;;5.40;99138.00;;;;4934445;29;20048;-63
2023/11/22 01:51:29;;;;;;;3.33;2.75;;;;;5.40;99138.00;;;;4933251;29;20142;-62
2023/11/22 01:53:57;;;;;;;4.57;3.45;;;;;5.40;99144.00;;;;4932700;29;20083;-63
2023/11/22 01:56:26;;;;;;;3.92;2.90;;;;;5.40;99142.00;;;;4933127;29;20075;-63
2023/11/22 01:58:55;;;;;;;3.65;2.92;;;;;5.30;99138.00;;;;4933174;29;20047;-61
2023/11/22 02:01:22;;;;;;;3.55;2.67;;;;;5.30;99152.00;;;;4932886;29;20107;-63
2023/11/22 02:03:48;;;;;;;4.65;3.00;;;;;5.30;99148.00;;;;4933914;29;20063;-62
2023/11/22 02:06:16;;;;;;;4.95;2.60;;;;;5.30;99155.00;;;;4932822;29;20052;-62
2023/11/22 02:08:43;;;;;;;2.58;2.33;;;;;5.20;99150.00;;;;4933771;29;20461;-62
2023/11/22 02:11:10;;;;;;;4.55;2.33;;;;;5.20;99156.00;;;;4936614;29;20043;-63
2023/11/22 02:13:38;;;;;;;3.08;2.33;;;;;5.10;99156.00;;;;4937242;29;20182;-64
2023/11/22 02:16:05;;;;;;;4.53;2.95;;;;;5.00;99158.00;;;;4937730;29;20046;-62
2023/11/22 02:18:31;;;;;;;3.42;2.40;;;;;5.00;99160.00;;;;4937764;29;20731;-61
2023/11/22 02:20:59;;;;;;;3.08;2.13;;;;;5.00;99163.00;;;;4937756;29;20114;-62
2023/11/22 02:23:26;;;;;;;3.58;2.30;;;;;5.00;99160.00;;;;4936695;29;20055;-62
2023/11/22 02:25:53;;;;;;;4.32;2.55;;;;;4.90;99160.00;;;;4940795;29;20147;-61
2023/11/22 02:28:19;;;;;;;3.53;2.53;;;;;4.90;99171.00;;;;4949105;29;20051;-64
2023/11/22 02:30:46;;;;;;;2.55;2.20;;;;;4.90;99173.00;;;;4951362;29;20071;-63
2023/11/22 02:33:14;;;;;;;5.35;2.53;;;;;4.90;99174.00;;;;4945041;29;20052;-62
2023/11/22 02:35:40;;;;;;;5.05;2.33;;;;;5.00;99184.00;;;;4946017;29;20122;-61
2023/11/22 02:38:07;;;;;;;3.17;2.35;;;;;5.00;99185.00;;;;4947315;29;20051;-62
2023/11/22 02:40:34;;;;;;;4.00;2.58;;;;;5.00;99190.00;;;;4944905;29;20147;-61
2023/11/22 02:43:08;;;;;;;3.55;2.58;;;;;5.00;99187.00;;;;4948932;29;20074;-61
2023/11/22 02:45:36;;;;;;;3.25;2.20;;;;;5.00;99186.00;;;;4948285;29;20044;-64
2023/11/22 02:48:03;;;;;;;4.05;2.80;;;;;4.90;99190.00;;;;4951846;29;20083;-61
2023/11/22 02:50:34;;;;;;;3.50;2.38;;;;;5.00;99193.00;;;;4949959;29;20047;-62
2023/11/22 02:53:01;;;;;;;3.55;2.47;;;;;4.90;99187.00;;;;4948281;29;20063;-61
2023/11/22 02:55:28;;;;;;;3.35;2.53;;;;;4.90;99182.00;;;;4949754;29;20056;-62
2023/11/22 02:57:55;;;;;;;4.03;2.70;;;;;4.80;99182.00;;;;4949018;29;20090;-63
2023/11/22 03:00:22;;;;;;;4.10;2.30;;;;;4.80;99174.00;;;;4945842;29;20048;-62
2023/11/22 03:02:53;;;;;;;3.88;2.58;;;;;4.70;99175.00;;;;4946568;29;20115;-61
2023/11/22 03:05:21;;;;;;;3.17;2.65;;;;;4.70;99186.00;;;;4946557;29;20051;-61
2023/11/22 03:07:50;;;;;;;4.00;2.67;;;;;4.60;99185.00;;;;4940844;29;20519;-62
2023/11/22 03:10:18;;;;;;;4.25;2.55;;;;;4.70;99187.00;;;;4936343;29;20501;-62
2023/11/22 03:12:45;;;;;;;3.33;2.53;;;;;4.70;99194.00;;;;4943792;29;20054;-62
2023/11/22 03:15:12;;;;;;;6.38;3.17;;;;;4.70;99198.00;;;;4936400;29;20051;-63
2023/11/22 03:17:38;;;;;;;8.50;3.33;;;;;4.70;99205.00;;;;4935907;29;20152;-62
2023/11/22 03:20:10;;;;;;;4.47;3.38;;;;;4.70;99216.00;;;;4934971;29;20509;-61
2023/11/22 03:22:38;;;;;;;4.30;2.95;;;;;4.80;99223.00;;;;4935445;29;20052;-59
2023/11/22 03:25:05;;;;;;;5.85;3.08;;;;;4.70;99227.00;;;;4934850;29;20047;-61
2023/11/22 03:27:31;;;;;;;3.83;3.25;;;;;4.80;99227.00;;;;4935377;29;20147;-61
2023/11/22 03:29:59;;;;;;;7.57;3.85;;;;;4.80;99233.00;;;;4936577;29;20505;-62
2023/11/22 03:32:26;;;;;;;3.80;3.42;;;;;4.70;99237.00;;;;4936604;29;20043;-60
2023/11/22 03:34:53;;;;;;;4.07;3.20;;;;;4.70;99235.00;;;;4935921;29;20058;-61
2023/11/22 03:37:19;;;;;;;4.40;3.50;;;;;4.80;99235.00;;;;4936895;29;20050;-61
2023/11/22 03:39:48;;;;;;;7.35;3.28;;;;;4.80;99251.00;;;;4936521;29;20048;-61
2023/11/22 03:42:16;;;;;;;6.18;3.80;;;;;4.70;99249.00;;;;4936383;29;20075;-61
2023/11/22 03:44:44;;;;;;;4.70;3.72;;;;;4.80;99267.00;;;;4934267;29;20055;-63
2023/11/22 03:47:12;;;;;;;3.50;2.88;;;;;5.00;99260.00;;;;4935140;29;20047;-61
2023/11/22 03:49:39;;;;;;;5.18;3.05;;;;;5.00;99262.00;;;;4935966;29;20044;-60
2023/11/22 03:52:06;;;;;;;4.60;2.75;;;;;4.90;99269.00;;;;4936001;29;20071;-61
2023/11/22 03:54:33;;;;;;;7.13;3.05;;;;;5.00;99271.00;;;;4935327;29;20135;-61
2023/11/22 03:56:59;;;;;;;4.63;3.00;;;;;5.00;99276.00;;;;4935936;29;20086;-61
2023/11/22 03:59:26;;;;;;;5.30;3.10;;;;;5.00;99278.00;;;;4934843;29;20051;-61
2023/11/22 04:01:52;;;;;;;3.60;3.13;;;;;5.00;99280.00;;;;4935798;29;20052;-61
2023/11/22 04:04:20;;;;;;;4.80;3.08;;;;;5.00;99293.00;;;;4935124;29;20464;-61
2023/11/22 04:06:46;;;;;;;6.32;3.97;;;;;4.90;99300.00;;;;4934290;29;20138;-60
2023/11/22 04:09:13;;;;;;;4.55;2.83;;;;;4.80;99291.00;;;;4935869;29;20072;-62
2023/11/22 04:11:39;;;;;;;4.43;3.45;;;;;4.80;99300.00;;;;4935817;29;20036;-61
2023/11/22 04:14:06;;;;;;;3.97;2.80;;;;;4.80;99293.00;;;;4935123;29;20055;-61
2023/11/22 04:16:33;;;;;;;4.70;3.22;;;;;4.80;99310.00;;;;4934360;29;20051;-60
2023/11/22 04:19:00;;;;;;;8.98;6.10;;;;;4.80;99300.00;;;;4935504;29;20075;-62
2023/11/22 04:21:27;;;;;;;4.85;3.90;;;;;4.90;99299.00;;;;4935344;29;20035;-61
2023/11/22 04:23:53;;;;;;;4.28;3.08;;;;;4.80;99299.00;;;;4934895;29;20131;-62
2023/11/22 04:26:20;;;;;;;4.15;3.40;;;;;4.90;99309.00;;;;4935397;29;20052;-62
2023/11/22 04:28:47;;;;;;;4.90;3.88;;;;;4.70;99307.00;;;;4934236;29;20099;-60
2023/11/22 04:31:15;;;;;;;3.70;3.22;;;;;4.60;99315.00;;;;4935542;29;20044;-61
2023/11/22 04:33:41;;;;;;;5.45;3.28;;;;;4.50;99316.00;;;;4934026;29;20782;-62
2023/11/22 04:36:08;;;;;;;5.53;3.33;;;;;4.50;99319.00;;;;4934183;29;20076;-61
2023/11/22 04:38:35;;;;;;;5.80;3.30;;;;;4.40;99310.00;;;;4934152;29;20043;-60
2023/11/22 04:41:02;;;;;;;4.07;3.28;;;;;4.40;99312.00;;;;4935095;29;20111;-61
2023/11/22 04:43:29;;;;;;;6.53;3.30;;;;;4.30;99319.00;;;;4933445;29;20044;-62
2023/11/22 04:45:55;;;;;;;8.10;3.35;;;;;4.20;99326.00;;;;4934938;29;20054;-61
2023/11/22 04:48:22;;;;;;;4.20;2.83;;;;;4.20;99328.00;;;;4935034;29;20408;-61
2023/11/22 04:50:49;;;;;;;5.20;2.85;;;;;4.20;99320.00;;;;4936710;29;20067;-62
2023/11/22 04:53:17;;;;;;;5.72;3.42;;;;;4.20;99325.00;;;;4936310;29;20495;-62
2023/11/22 04:55:43;;;;;;;4.45;3.30;;;;;4.20;99324.00;;;;4934353;29;20056;-61
2023/11/22 04:58:11;;;;;;;3.88;3.15;;;;;4.20;99326.00;;;;4934973;29;20123;-61
2023/11/22 05:00:37;;;;;;;5.05;3.03;;;;;4.10;99326.00;;;;4933664;29;20063;-61
2023/11/22 05:03:04;;;;;;;4.15;3.08;;;;;4.10;99335.00;;;;4934916;29;20058;-61
2023/11/22 05:05:31;;;;;;;4.38;3.45;;;;;4.00;99349.00;;;;4934247;29;20044;-62
2023/11/22 05:07:57;;;;;;;4.50;3.47;;;;;4.10;99346.00;;;;4934696;29;20445;-61
2023/11/22 05:10:24;;;;;;;5.13;3.53;;;;;4.10;99344.00;;;;4933587;29;20127;-61
2023/11/22 05:12:50;;;;;;;4.35;3.22;;;;;4.10;99344.00;;;;4934879;29;20118;-61
2023/11/22 05:15:17;;;;;;;5.03;3.28;;;;;4.10;99342.00;;;;4934510;29;20447;-61
2023/11/22 05:17:43;;;;;;;4.65;3.60;;;;;4.10;99334.00;;;;4934959;29;20442;-61
2023/11/22 05:20:10;;;;;;;7.68;3.72;;;;;4.10;99346.00;;;;4934686;29;20044;-61
2023/11/22 05:22:37;;;;;;;5.22;3.65;;;;;4.10;99348.00;;;;4935082;29;20430;-63
2023/11/22 05:25:06;;;;;;;6.03;4.07;;;;;4.10;99343.00;;;;4934065;29;20370;-61
2023/11/22 05:27:33;;;;;;;6.82;4.13;;;;;4.20;99363.00;;;;4934678;29;20424;-61
2023/11/22 05:30:00;;;;;;;5.80;4.15;;;;;4.30;99351.00;;;;4933450;29;20044;-62
2023/11/22 05:32:28;;;;;;;8.38;4.00;;;;;4.30;99367.00;;;;4934771;29;20082;-61
2023/11/22 05:34:55;;;;;;;6.13;3.72;;;;;4.30;99373.00;;;;4934007;29;20567;-62
2023/11/22 05:37:22;;;;;;;4.45;4.00;;;;;4.30;99381.00;;;;4934655;29;20054;-61
2023/11/22 05:39:51;;;;;;;5.60;3.90;;;;;4.40;99386.00;;;;4934571;29;20075;-61
2023/11/22 05:42:17;;;;;;;6.88;3.72;;;;;4.40;99391.00;;;;4934495;29;20048;-61
2023/11/22 05:44:44;;;;;;;4.10;3.28;;;;;4.40;99387.00;;;;4934854;29;20107;-61
2023/11/22 05:47:12;;;;;;;5.78;3.75;;;;;4.40;99382.00;;;;4938394;29;20047;-61
2023/11/22 05:49:39;;;;;;;4.75;3.50;;;;;4.30;99390.00;;;;4938278;29;20466;-61
2023/11/22 05:52:06;;;;;;;5.15;4.03;;;;;4.20;99379.00;;;;4938436;29;20047;-63
2023/11/22 05:54:33;;;;;;;8.35;4.18;;;;;4.20;99383.00;;;;4937622;29;20050;-61
2023/11/22 05:57:00;;;;;;;7.07;4.57;;;;;4.20;99383.00;;;;4938340;29;20489;-61
2023/11/22 05:59:26;;;;;;;8.48;5.32;;;;;4.30;99381.00;;;;4938029;29;20408;-62
2023/11/22 06:01:53;;;;;;;8.05;3.53;;;;;4.40;99392.00;;;;4937830;29;20051;-61
2023/11/22 06:04:20;;;;;;;4.53;3.42;;;;;4.30;99390.00;;;;4937662;29;20044;-61
2023/11/22 06:06:46;;;;;;;3.92;2.92;;;;;4.30;99403.00;;;;4937822;29;20055;-62
2023/11/22 06:09:14;;;;;;;3.58;2.80;;;;;4.10;99404.00;;;;4936822;29;20090;-62
2023/11/22 06:11:41;;;;;;;4.68;3.10;;;;;4.00;99408.00;;;;4936934;29;20055;-62
2023/11/22 06:14:07;;;;;;;5.45;3.17;;;;;4.00;99409.00;;;;4936357;29;20047;-61
2023/11/22 06:16:34;;;;;;;5.22;3.30;;;;;4.00;99409.00;;;;4938117;29;20059;-61
2023/11/22 06:19:01;;;;;;;4.50;3.03;;;;;3.90;99417.00;;;;4937912;29;20472;-63
2023/11/22 06:21:28;;;;;;;6.82;3.40;;;;;3.90;99425.00;;;;4937745;29;20046;-62
2023/11/22 06:23:57;;;;;;;4.68;2.95;;;;;3.80;99415.00;;;;4937053;29;20058;-61
2023/11/22 06:26:24;;;;;;;5.53;3.22;;;;;3.80;99414.00;;;;4936406;29;20469;-61
2023/11/22 06:28:52;;;;;;;5.78;3.15;;;;;3.80;99424.00;;;;4937598;29;20122;-63
2023/11/22 06:31:18;;;;;;;3.95;2.97;;;;;3.80;99422.00;;;;4937621;29;20113;-61
2023/11/22 06:33:45;;;;;;;15.68;4.05;;;;;3.70;99441.00;;;;4937061;29;20074;-63
2023/11/22 06:36:14;;;;;;;5.68;3.55;;;;;3.60;99435.00;;;;4937217;29;20043;-62
2023/11/22 06:38:41;;;;;;;3.90;3.03;;;;;3.50;99446.00;;;;4937654;29;20060;-60
2023/11/22 06:41:07;;;;;;;4.00;3.25;;;;;3.60;99439.00;;;;4936758;29;20107;-62
2023/11/22 06:43:34;;;;;;;6.57;3.67;;;;;3.60;99431.00;;;;4936240;29;20056;-61
2023/11/22 06:46:05;;;;;;;5.60;3.67;;;;;3.60;99433.00;;;;4937462;29;20477;-62
2023/11/22 06:48:33;;;;;;;5.18;3.78;;;;;3.50;99453.00;;;;4937243;29;20421;-63
2023/11/22 06:51:00;;;;;;;6.28;4.20;;;;;3.50;99468.00;;;;4935910;29;20052;-63
2023/11/22 06:53:27;;;;;;;4.40;3.60;;;;;3.60;99442.00;;;;4935405;29;20453;-61
2023/11/22 06:55:54;;;;;;;6.70;4.15;;;;;3.60;99448.00;;;;4937042;29;20071;-62
2023/11/22 06:58:21;;;;;;;6.20;4.15;;;;;3.50;99455.00;;;;4937092;29;20075;-62
2023/11/22 07:00:48;;;;;;;5.57;3.90;;;;;3.50;99462.00;;;;4920098;29;20412;-62
2023/11/22 07:03:15;;;;;;;8.70;4.45;;;;;3.50;99455.00;;;;4936942;29;20516;-62
2023/11/22 07:05:43;;;;;;;6.90;4.57;;;;;3.50;99450.00;;;;4936186;29;20086;-61
2023/11/22 07:08:10;;;;;;;7.50;4.85;;;;;3.40;99446.00;;;;4936848;29;20126;-62
2023/11/22 07:10:37;;;;;;;6.20;4.07;;;;;3.40;99452.00;;;;4936871;29;20055;-62
2023/11/22 07:13:04;;;;;;;5.45;3.72;;;;;3.40;99440.00;;;;4936833;29;20119;-62
2023/11/22 07:15:31;;;;;;;5.10;3.92;;;;;3.40;99456.00;;;;4935043;29;20044;-62
2023/11/22 07:17:58;;;;;;;12.70;4.57;;;;;3.30;99454.00;;;;4935501;29;20047;-63
2023/11/22 07:20:27;;;;;;;6.68;4.32;;;;;3.30;99455.00;;;;4936522;29;20055;-63
2023/11/22 07:22:57;;;;;;;7.13;4.20;;;;;3.20;99457.00;;;;4936617;29;20130;-60
2023/11/22 07:25:26;;;;;;;7.68;3.88;;;;;3.20;99464.00;;;;4936072;29;20075;-62
2023/11/22 07:27:53;;;;;;;6.03;4.55;;;;;3.20;99464.00;;;;4936605;29;20075;-62
2023/11/22 07:30:22;;;;;;;5.80;4.25;;;;;3.20;99464.00;;;;4936579;29;20048;-62
2023/11/22 07:32:51;;;;;;;6.35;4.13;;;;;3.20;99470.00;;;;4936433;29;20066;-63
2023/11/22 07:35:19;;;;;;;8.02;4.63;;;;;3.20;99474.00;;;;4934569;29;20460;-61
2023/11/22 07:37:47;;;;;;;6.75;4.82;;;;;3.30;99472.00;;;;4936291;29;20048;-62
2023/11/22 07:40:14;;;;;;;13.05;5.38;;;;;3.30;99479.00;;;;4936589;29;20378;-62
2023/11/22 07:42:42;;;;;;;5.97;4.53;;;;;3.30;99475.00;;;;4936251;29;20044;-63
2023/11/22 07:45:11;;;;;;;8.32;4.90;;;;;3.30;99478.00;;;;4935459;29;20111;-62
2023/11/22 07:47:43;;;;;;;10.07;6.70;;;;;3.30;99473.00;;;;4936238;29;20044;-62
2023/11/22 07:50:11;;;;;;;8.57;4.78;;;;;3.40;99474.00;;;;4934965;29;20102;-64
2023/11/22 07:52:40;;;;;;;9.40;5.28;;;;;3.50;99478.00;;;;4936082;29;20424;-63
2023/11/22 07:55:10;;;;;;;8.68;4.82;;;;;3.60;99476.00;;;;4935646;29;20480;-60
2023/11/22 07:57:38;;;;;;;7.35;4.43;;;;;3.50;99477.00;;;;4936035;29;20169;-62
2023/11/22 08:00:07;;;;;;;8.02;4.97;;;;;3.50;99468.00;;;;4934677;29;20731;-61
2023/11/22 08:02:40;;;;;;;7.53;4.57;;;;;3.50;99474.00;;;;4935895;29;20410;-63
2023/11/22 08:05:09;;;;;;;8.27;4.72;;;;;3.40;99470.00;;;;4935493;29;20067;-62
2023/11/22 08:07:39;;;;;;;8.07;5.75;;;;;3.40;99468.00;;;;4934087;29;20058;-63
2023/11/22 08:10:17;;;;;;;12.48;7.93;;;;;3.40;99473.00;;;;4935832;29;20047;-62
2023/11/22 08:12:47;;;;;;;10.20;6.28;;;;;3.60;99472.00;;;;4936031;29;20044;-62
2023/11/22 08:15:15;;;;;;;15.35;7.82;;;;;3.60;99476.00;;;;4935459;29;20083;-62
2023/11/22 08:17:43;;;;;;;7.55;5.10;;;;;3.70;99477.00;;;;4936080;29;20453;-63
2023/11/22 08:20:16;;;;;;;8.82;5.47;;;;;3.70;99476.00;;;;4935313;29;20054;-62
2023/11/22 08:22:49;;;;;;;7.68;4.55;;;;;3.70;99482.00;;;;4934880;29;20040;-62
2023/11/22 08:25:16;;;;;;;8.38;5.22;;;;;3.70;99478.00;;;;4935318;29;20123;-63
2023/11/22 08:27:43;;;;;;;11.50;4.85;;;;;3.70;99471.00;;;;4919115;29;20087;-61
2023/11/22 08:30:15;;;;;;;7.32;5.15;;;;;3.80;99487.00;;;;4935962;29;20047;-61
2023/11/22 08:32:42;;;;;;;6.35;4.45;;;;;3.80;99486.00;;;;4935500;29;20095;-62
2023/11/22 08:35:10;;;;;;;8.68;5.50;;;;;3.80;99500.00;;;;4935173;29;20413;-61
2023/11/22 08:37:41;;;;;;;6.38;4.63;;;;;3.80;99508.00;;;;4936186;29;20421;-62
2023/11/22 08:40:14;;;;;;;7.80;5.05;;;;;3.70;99511.00;;;;4935695;29;20075;-62
2023/11/22 08:42:40;;;;;;;7.32;5.25;;;;;3.70;99519.00;;;;4935557;29;20405;-61
2023/11/22 08:45:08;;;;;;;8.93;4.82;;;;;3.80;99514.00;;;;4935752;29;20052;-63
2023/11/22 08:47:34;;;;;;;6.63;4.35;;;;;3.80;99510.00;;;;4935861;29;20107;-62
2023/11/22 08:50:03;;;;;;;6.40;4.22;;;;;3.80;99524.00;;;;4934938;29;20043;-63
2023/11/22 08:52:30;;;;;;;5.97;3.97;;;;;3.70;99528.00;;;;4935349;29;20095;-61
2023/11/22 08:54:57;;;;;;;7.60;4.00;;;;;3.60;99521.00;;;;4934850;29;20048;-61
2023/11/22 08:57:24;;;;;;;5.70;4.30;;;;;3.60;99536.00;;;;4934046;29;20416;-61
2023/11/22 08:59:50;;;;;;;5.03;4.22;;;;;3.60;99539.00;;;;4935200;29;20126;-62
2023/11/22 09:02:22;;;;;;;5.20;3.88;;;;;3.50;99535.00;;;;4935180;29;20397;-63
2023/11/22 09:04:49;;;;;;;5.28;4.00;;;;;3.50;99537.00;;;;4934424;29;20048;-61
2023/11/22 09:07:16;;;;;;;5.50;4.03;;;;;3.50;99539.00;;;;4934001;29;20083;-61
2023/11/22 09:09:43;;;;;;;6.53;4.20;;;;;3.60;99541.00;;;;4935142;29;20047;-62
2023/11/22 09:12:12;;;;;;;6.25;4.20;;;;;3.60;99548.00;;;;4935170;29;20046;-61
2023/11/22 09:14:41;;;;;;;9.40;4.90;;;;;3.60;99549.00;;;;4933206;29;20060;-62
2023/11/22 09:17:09;;;;;;;5.88;4.10;;;;;3.60;99529.00;;;;4935003;29;20044;-62
2023/11/22 09:19:37;;;;;;;5.18;3.97;;;;;3.80;99536.00;;;;4936933;29;20050;-63
2023/11/22 09:22:06;;;;;;;5.25;3.90;;;;;3.80;99519.00;;;;4938822;29;20044;-62
2023/11/22 09:24:33;;;;;;;6.25;4.22;;;;;3.70;99520.00;;;;4938314;29;20047;-62
2023/11/22 09:27:00;;;;;;;6.38;4.45;;;;;3.90;99519.00;;;;4937658;29;20048;-62
2023/11/22 09:29:27;;;;;;;5.63;3.92;;;;;3.90;99521.00;;;;4938744;29;20110;-63
2023/11/22 09:31:54;;;;;;;7.10;4.55;;;;;4.10;99522.00;;;;4938667;29;20446;-63
2023/11/22 09:34:21;;;;;;;5.60;3.22;;;;;4.20;99525.00;;;;4938016;29;20043;-63
2023/11/22 09:36:48;;;;;;;6.22;3.65;;;;;4.20;99524.00;;;;4937360;29;20060;-62
2023/11/22 09:39:14;;;;;;;6.20;3.85;;;;;4.20;99522.00;;;;4938597;29;20126;-62
2023/11/22 09:41:41;;;;;;;5.88;4.28;;;;;4.40;99516.00;;;;4938546;29;20047;-64
2023/11/22 09:44:10;;;;;;;4.28;3.42;;;;;4.60;99532.00;;;;4937893;29;20055;-63
2023/11/22 09:46:40;;;;;;;5.32;3.70;;;;;4.70;99529.00;;;;4938335;29;20052;-62
2023/11/22 09:49:11;;;;;;;6.40;4.13;;;;;4.80;99536.00;;;;4938406;29;20099;-64
2023/11/22 09:51:42;;;;;;;8.65;3.80;;;;;5.00;99529.00;;;;4937203;29;20122;-62
2023/11/22 09:54:14;;;;;;;5.53;3.63;;;;;5.00;99532.00;;;;4937525;29;20059;-62
2023/11/22 09:56:41;;;;;;;4.10;3.03;;;;;4.80;99530.00;;;;4936920;29;20047;-61
2023/11/22 09:59:08;;;;;;;8.65;3.17;;;;;4.80;99532.00;;;;4938340;29;20048;-61
2023/11/22 10:01:38;;;;;;;4.25;3.10;;;;;4.80;99546.00;;;;4938203;29;20307;-61
2023/11/22 10:04:05;;;;;;;5.97;3.67;;;;;5.00;99564.00;;;;4937571;29;20056;-62
2023/11/22 10:06:35;;;;;;;5.32;3.25;;;;;5.30;99574.00;;;;4937873;29;20130;-61
2023/11/22 10:09:08;;;;;;;4.93;3.53;;;;;5.30;99573.00;;;;4936772;29;20146;-63
2023/11/22 10:11:43;;;;;;;4.10;3.22;;;;;5.20;99586.00;;;;4937987;29;20445;-62
2023/11/22 10:14:09;;;;;;;6.18;3.70;;;;;5.30;99578.00;;;;4937268;29;20040;-63
2023/11/22 10:16:37;;;;;;;4.28;3.03;;;;;5.30;99598.00;;;;4937852;29;20398;-62
2023/11/22 10:19:06;;;;;;;5.53;3.60;;;;;5.30;99600.00;;;;4937735;29;20048;-62
2023/11/22 10:21:33;;;;;;;5.57;3.83;;;;;4.90;99605.00;;;;4936292;29;20047;-61
2023/11/22 10:24:03;;;;;;;4.35;3.10;;;;;4.80;99585.00;;;;4935802;29;20076;-62
2023/11/22 10:26:31;;;;;;;6.47;3.17;;;;;5.00;99598.00;;;;4936385;29;20146;-62
2023/11/22 10:28:58;;;;;;;4.10;3.45;;;;;5.10;99606.00;;;;4937732;29;20050;-62
2023/11/22 10:31:26;;;;;;;7.95;4.03;;;;;5.10;99595.00;;;;4936977;29;20138;-61
2023/11/22 10:33:55;;;;;;;6.13;3.85;;;;;4.90;99598.00;;;;4936733;29;20075;-61
2023/11/22 10:36:22;;;;;;;5.82;3.35;;;;;4.90;99603.00;;;;4937390;29;20450;-61
2023/11/22 10:38:50;;;;;;;4.88;3.28;;;;;4.80;99610.00;;;;4936337;29;20564;-61
2023/11/22 10:41:20;;;;;;;4.55;3.28;;;;;4.80;99594.00;;;;4937376;29;20378;-61
2023/11/22 10:43:47;;;;;;;4.32;3.50;;;;;4.80;99593.00;;;;4936922;29;20396;-61
2023/11/22 10:46:16;;;;;;;3.85;3.17;;;;;4.90;99592.00;;;;4935940;29;20110;-62
2023/11/22 10:48:43;;;;;;;4.30;2.85;;;;;4.80;99600.00;;;;4937366;29;20052;-63
2023/11/22 10:51:13;;;;;;;4.03;2.80;;;;;5.00;99595.00;;;;4937292;29;20075;-60
2023/11/22 10:53:48;;;;;;;4.95;3.50;;;;;5.10;99588.00;;;;4936734;29;20142;-62
2023/11/22 10:56:19;;;;;;;5.05;3.58;;;;;5.30;99591.00;;;;4937149;29;20079;-62
2023/11/22 10:58:55;;;;;;;4.35;2.83;;;;;5.50;99591.00;;;;4937034;29;20410;-63
2023/11/22 11:01:25;;;;;;;7.25;3.28;;;;;5.60;99594.00;;;;4936903;29;20430;-63
2023/11/22 11:04:00;;;;;;;5.85;3.42;;;;;5.70;99597.00;;;;4936592;29;20043;-63
2023/11/22 11:06:33;;;;;;;4.25;3.22;;;;;5.60;99615.00;;;;4936437;29;20047;-64
2023/11/22 11:09:12;;;;;;;4.45;3.38;;;;;5.50;99623.00;;;;4936818;29;20071;-63
2023/11/22 11:11:38;;;;;;;5.28;3.30;;;;;5.40;99629.00;;;;4935638;29;20052;-63
2023/11/22 11:14:07;;;;;;;6.72;3.22;;;;;5.30;99634.00;;;;4934879;29;20494;-63
2023/11/22 11:16:38;;;;;;;3.97;3.13;;;;;5.30;99647.00;;;;4936628;29;20050;-62
2023/11/22 11:19:07;;;;;;;4.57;2.92;;;;;5.30;99638.00;;;;4936733;29;20047;-62
2023/11/22 11:21:34;;;;;;;3.97;3.15;;;;;5.50;99641.00;;;;4936394;29;20102;-62
2023/11/22 11:24:03;;;;;;;5.00;3.60;;;;;5.60;99644.00;;;;4936115;29;20408;-62
2023/11/22 11:26:34;;;;;;;3.90;3.25;;;;;5.50;99634.00;;;;4936364;29;20047;-62
2023/11/22 11:29:03;;;;;;;5.35;2.88;;;;;5.50;99630.00;;;;4936517;29;20079;-62
2023/11/22 11:31:39;;;;;;;4.53;3.22;;;;;5.80;99627.00;;;;4936399;29;20176;-62
2023/11/22 11:34:06;;;;;;;4.18;3.10;;;;;5.80;99632.00;;;;4935798;29;20055;-63
2023/11/22 11:36:33;;;;;;;4.22;3.10;;;;;5.80;99635.00;;;;4936218;29;20053;-62
2023/11/22 11:39:05;;;;;;;3.30;2.70;;;;;5.70;99630.00;;;;4936286;29;20531;-63
2023/11/22 11:41:33;;;;;;;4.50;3.10;;;;;5.70;99636.00;;;;4935508;29;20050;-62
2023/11/22 11:44:02;;;;;;;4.55;3.47;;;;;5.80;99634.00;;;;4934385;29;20048;-61
2023/11/22 11:46:29;;;;;;;3.70;2.75;;;;;5.70;99646.00;;;;4934871;29;20064;-62
2023/11/22 11:48:57;;;;;;;3.85;3.00;;;;;5.60;99652.00;;;;4936109;29;20404;-62
2023/11/22 11:51:28;;;;;;;6.63;3.92;;;;;5.60;99653.00;;;;4936022;29;20040;-61
2023/11/22 11:53:55;;;;;;;5.15;3.72;;;;;5.50;99668.00;;;;4935476;29;20075;-63
2023/11/22 11:56:26;;;;;;;4.82;3.55;;;;;5.30;99663.00;;;;4936255;29;20048;-62
2023/11/22 11:58:58;;;;;;;5.57;3.83;;;;;5.10;99655.00;;;;4919003;29;20433;-63
2023/11/22 12:01:29;;;;;;;4.80;3.28;;;;;5.00;99649.00;;;;4935767;29;20425;-62
2023/11/22 12:03:56;;;;;;;4.00;3.42;;;;;5.00;99645.00;;;;4934080;29;20091;-62
2023/11/22 12:06:23;;;;;;;4.10;3.15;;;;;5.00;99658.00;;;;4935571;29;20054;-63
2023/11/22 12:08:49;;;;;;;5.13;3.10;;;;;5.00;99664.00;;;;4935634;29;20497;-62
2023/11/22 12:11:17;;;;;;;4.13;3.20;;;;;5.10;99651.00;;;;4934492;29;20056;-62
2023/11/22 12:13:48;;;;;;;4.10;3.15;;;;;5.10;99647.00;;;;4933928;29;20064;-62
2023/11/22 12:16:16;;;;;;;8.93;3.75;;;;;5.00;99642.00;;;;4934566;29;20134;-62
2023/11/22 12:18:50;;;;;;;4.85;3.55;;;;;5.00;99646.00;;;;4935748;29;20086;-62
2023/11/22 12:21:17;;;;;;;5.18;3.47;;;;;4.90;99647.00;;;;4935532;29;20052;-62
2023/11/22 12:23:46;;;;;;;5.75;3.60;;;;;5.00;99644.00;;;;4934930;29;20047;-62
2023/11/22 12:26:17;;;;;;;3.75;2.90;;;;;5.00;99647.00;;;;4935282;29;20079;-62
2023/11/22 12:28:48;;;;;;;6.10;3.15;;;;;5.00;99639.00;;;;4935392;29;20130;-62